sensor_id;sensor_type;location;lat;lon;timestamp;P1;durP1;ratioP1;P2;durP2;ratioP2
3052;SDS011;1536;51.098;6.414;2023-03-01T00:00:53;10.52;;;9.32;;
3052;SDS011;1536;51.098;6.414;2023-03-01T00:03:20;10.30;;;9.30;;
3052;SDS011;1536;51.098;6.414;2023-03-01T00:05:47;13.32;;;9.48;;
3052;SDS011;1536;51.098;6.414;2023-03-01T00:08:14;10.18;;;9.15;;
3052;SDS011;1536;51.098;6.414;2023-03-01T00:10:41;11.80;;;9.85;;
3052;SDS011;1536;51.098;6.414;2023-03-01T00:13:09;12.05;;;10.85;;
3052;SDS011;1536;51.098;6.414;2023-03-01T00:15:37;15.23;;;10.70;;
3052;SDS011;1536;51.098;6.414;2023-03-01T00:18:06;11.75;;;9.63;;
3052;SDS011;1536;51.098;6.414;2023-03-01T00:20:33;11.80;;;10.60;;
3052;SDS011;1536;51.098;6.414;2023-03-01T00:22:59;14.80;;;10.60;;
3052;SDS011;1536;51.098;6.414;2023-03-01T00:25:26;13.88;;;9.20;;
3052;SDS011;1536;51.098;6.414;2023-03-01T00:27:53;14.60;;;9.85;;
3052;SDS011;1536;51.098;6.414;2023-03-01T00:30:21;11.60;;;10.38;;
3052;SDS011;1536;51.098;6.414;2023-03-01T00:32:48;10.85;;;9.75;;
3052;SDS011;1536;51.098;6.414;2023-03-01T00:35:14;10.68;;;9.60;;
3052;SDS011;1536;51.098;6.414;2023-03-01T00:37:41;11.13;;;9.93;;
3052;SDS011;1536;51.098;6.414;2023-03-01T00:40:08;10.38;;;9.43;;
3052;SDS011;1536;51.098;6.414;2023-03-01T00:42:36;14.27;;;10.52;;
3052;SDS011;1536;51.098;6.414;2023-03-01T00:45:03;11.77;;;10.60;;
3052;SDS011;1536;51.098;6.414;2023-03-01T00:47:32;13.70;;;10.90;;
3052;SDS011;1536;51.098;6.414;2023-03-01T00:49:58;10.88;;;9.75;;
3052;SDS011;1536;51.098;6.414;2023-03-01T00:52:25;10.80;;;9.50;;
3052;SDS011;1536;51.098;6.414;2023-03-01T00:54:53;16.23;;;10.50;;
3052;SDS011;1536;51.098;6.414;2023-03-01T00:57:19;10.57;;;9.57;;
3052;SDS011;1536;51.098;6.414;2023-03-01T00:59:46;10.57;;;9.57;;
3052;SDS011;1536;51.098;6.414;2023-03-01T01:02:13;10.50;;;9.40;;
3052;SDS011;1536;51.098;6.414;2023-03-01T01:04:41;12.32;;;10.65;;
3052;SDS011;1536;51.098;6.414;2023-03-01T01:07:08;13.88;;;10.05;;
3052;SDS011;1536;51.098;6.414;2023-03-01T01:09:34;11.45;;;8.80;;
3052;SDS011;1536;51.098;6.414;2023-03-01T01:12:01;11.25;;;10.13;;
3052;SDS011;1536;51.098;6.414;2023-03-01T01:14:28;10.82;;;9.70;;
3052;SDS011;1536;51.098;6.414;2023-03-01T01:16:55;10.50;;;9.60;;
3052;SDS011;1536;51.098;6.414;2023-03-01T01:19:22;12.70;;;9.77;;
3052;SDS011;1536;51.098;6.414;2023-03-01T01:21:51;11.05;;;9.75;;
3052;SDS011;1536;51.098;6.414;2023-03-01T01:24:18;11.00;;;9.90;;
3052;SDS011;1536;51.098;6.414;2023-03-01T01:26:45;11.00;;;9.88;;
3052;SDS011;1536;51.098;6.414;2023-03-01T01:29:12;14.32;;;9.93;;
3052;SDS011;1536;51.098;6.414;2023-03-01T01:31:40;11.98;;;9.95;;
3052;SDS011;1536;51.098;6.414;2023-03-01T01:34:12;12.10;;;10.93;;
3052;SDS011;1536;51.098;6.414;2023-03-01T01:36:40;11.73;;;10.15;;
3052;SDS011;1536;51.098;6.414;2023-03-01T01:39:09;12.30;;;10.25;;
3052;SDS011;1536;51.098;6.414;2023-03-01T01:41:38;12.23;;;10.50;;
3052;SDS011;1536;51.098;6.414;2023-03-01T01:44:13;11.48;;;10.48;;
3052;SDS011;1536;51.098;6.414;2023-03-01T01:46:43;12.73;;;10.40;;
3052;SDS011;1536;51.098;6.414;2023-03-01T01:49:17;11.18;;;10.07;;
3052;SDS011;1536;51.098;6.414;2023-03-01T01:51:57;10.77;;;9.98;;
3052;SDS011;1536;51.098;6.414;2023-03-01T01:54:34;11.73;;;9.77;;
3052;SDS011;1536;51.098;6.414;2023-03-01T01:57:06;12.95;;;11.65;;
3052;SDS011;1536;51.098;6.414;2023-03-01T01:59:37;11.43;;;9.75;;
3052;SDS011;1536;51.098;6.414;2023-03-01T02:02:04;13.18;;;11.05;;
3052;SDS011;1536;51.098;6.414;2023-03-01T02:04:31;11.00;;;9.95;;
3052;SDS011;1536;51.098;6.414;2023-03-01T02:07:00;11.93;;;10.75;;
3052;SDS011;1536;51.098;6.414;2023-03-01T02:09:29;11.13;;;10.02;;
3052;SDS011;1536;51.098;6.414;2023-03-01T02:11:59;11.63;;;10.20;;
3052;SDS011;1536;51.098;6.414;2023-03-01T02:14:27;11.63;;;10.43;;
3052;SDS011;1536;51.098;6.414;2023-03-01T02:16:53;11.52;;;10.43;;
3052;SDS011;1536;51.098;6.414;2023-03-01T02:19:25;12.40;;;11.20;;
3052;SDS011;1536;51.098;6.414;2023-03-01T02:22:01;12.98;;;9.95;;
3052;SDS011;1536;51.098;6.414;2023-03-01T02:24:36;13.45;;;10.70;;
3052;SDS011;1536;51.098;6.414;2023-03-01T02:27:13;15.90;;;10.18;;
3052;SDS011;1536;51.098;6.414;2023-03-01T02:29:42;11.95;;;10.70;;
3052;SDS011;1536;51.098;6.414;2023-03-01T02:32:09;12.48;;;11.18;;
3052;SDS011;1536;51.098;6.414;2023-03-01T02:34:37;10.93;;;9.90;;
3052;SDS011;1536;51.098;6.414;2023-03-01T02:37:07;15.88;;;11.10;;
3052;SDS011;1536;51.098;6.414;2023-03-01T02:39:39;11.55;;;10.40;;
3052;SDS011;1536;51.098;6.414;2023-03-01T02:42:09;10.20;;;9.20;;
3052;SDS011;1536;51.098;6.414;2023-03-01T02:44:39;16.00;;;11.15;;
3052;SDS011;1536;51.098;6.414;2023-03-01T02:47:07;12.25;;;10.95;;
3052;SDS011;1536;51.098;6.414;2023-03-01T02:49:34;11.88;;;10.38;;
3052;SDS011;1536;51.098;6.414;2023-03-01T02:52:13;12.90;;;11.57;;
3052;SDS011;1536;51.098;6.414;2023-03-01T02:54:58;12.75;;;11.45;;
3052;SDS011;1536;51.098;6.414;2023-03-01T02:57:28;11.90;;;10.80;;
3052;SDS011;1536;51.098;6.414;2023-03-01T02:59:56;12.50;;;11.23;;
3052;SDS011;1536;51.098;6.414;2023-03-01T03:02:27;12.77;;;10.98;;
3052;SDS011;1536;51.098;6.414;2023-03-01T03:05:03;12.93;;;11.63;;
3052;SDS011;1536;51.098;6.414;2023-03-01T03:07:33;12.13;;;11.02;;
3052;SDS011;1536;51.098;6.414;2023-03-01T03:10:00;12.10;;;11.10;;
3052;SDS011;1536;51.098;6.414;2023-03-01T03:12:27;12.35;;;10.82;;
3052;SDS011;1536;51.098;6.414;2023-03-01T03:14:54;12.75;;;11.45;;
3052;SDS011;1536;51.098;6.414;2023-03-01T03:17:20;16.60;;;12.65;;
3052;SDS011;1536;51.098;6.414;2023-03-01T03:19:48;15.63;;;14.10;;
3052;SDS011;1536;51.098;6.414;2023-03-01T03:22:15;11.95;;;10.75;;
3052;SDS011;1536;51.098;6.414;2023-03-01T03:24:42;15.43;;;10.80;;
3052;SDS011;1536;51.098;6.414;2023-03-01T03:27:08;11.35;;;10.32;;
3052;SDS011;1536;51.098;6.414;2023-03-01T03:29:35;13.85;;;11.30;;
3052;SDS011;1536;51.098;6.414;2023-03-01T03:32:02;11.80;;;10.52;;
3052;SDS011;1536;51.098;6.414;2023-03-01T03:34:29;12.50;;;11.20;;
3052;SDS011;1536;51.098;6.414;2023-03-01T03:36:57;12.55;;;10.63;;
3052;SDS011;1536;51.098;6.414;2023-03-01T03:39:24;12.85;;;11.40;;
3052;SDS011;1536;51.098;6.414;2023-03-01T03:41:51;12.60;;;11.40;;
3052;SDS011;1536;51.098;6.414;2023-03-01T03:44:18;12.90;;;11.68;;
3052;SDS011;1536;51.098;6.414;2023-03-01T03:46:46;14.73;;;11.00;;
3052;SDS011;1536;51.098;6.414;2023-03-01T03:49:13;13.98;;;11.52;;
3052;SDS011;1536;51.098;6.414;2023-03-01T03:51:39;14.95;;;12.80;;
3052;SDS011;1536;51.098;6.414;2023-03-01T03:54:07;13.70;;;12.15;;
3052;SDS011;1536;51.098;6.414;2023-03-01T03:56:35;15.85;;;12.68;;
3052;SDS011;1536;51.098;6.414;2023-03-01T03:59:02;14.73;;;12.63;;
3052;SDS011;1536;51.098;6.414;2023-03-01T04:01:30;12.25;;;11.00;;
3052;SDS011;1536;51.098;6.414;2023-03-01T04:03:57;12.40;;;11.40;;
3052;SDS011;1536;51.098;6.414;2023-03-01T04:06:28;13.10;;;11.65;;
3052;SDS011;1536;51.098;6.414;2023-03-01T04:08:55;17.52;;;12.15;;
3052;SDS011;1536;51.098;6.414;2023-03-01T04:11:24;15.95;;;11.35;;
3052;SDS011;1536;51.098;6.414;2023-03-01T04:13:54;13.70;;;12.30;;
3052;SDS011;1536;51.098;6.414;2023-03-01T04:16:23;13.02;;;11.70;;
3052;SDS011;1536;51.098;6.414;2023-03-01T04:18:49;13.60;;;12.20;;
3052;SDS011;1536;51.098;6.414;2023-03-01T04:21:18;15.07;;;11.80;;
3052;SDS011;1536;51.098;6.414;2023-03-01T04:23:45;13.23;;;11.90;;
3052;SDS011;1536;51.098;6.414;2023-03-01T04:26:12;14.70;;;11.43;;
3052;SDS011;1536;51.098;6.414;2023-03-01T04:28:40;15.70;;;12.15;;
3052;SDS011;1536;51.098;6.414;2023-03-01T04:31:10;14.05;;;12.55;;
3052;SDS011;1536;51.098;6.414;2023-03-01T04:33:42;17.15;;;12.35;;
3052;SDS011;1536;51.098;6.414;2023-03-01T04:36:11;13.07;;;11.75;;
3052;SDS011;1536;51.098;6.414;2023-03-01T04:38:39;12.15;;;10.95;;
3052;SDS011;1536;51.098;6.414;2023-03-01T04:41:07;13.32;;;12.05;;
3052;SDS011;1536;51.098;6.414;2023-03-01T04:43:35;15.55;;;11.93;;
3052;SDS011;1536;51.098;6.414;2023-03-01T04:46:05;12.82;;;11.02;;
3052;SDS011;1536;51.098;6.414;2023-03-01T04:48:34;13.15;;;11.70;;
3052;SDS011;1536;51.098;6.414;2023-03-01T04:51:02;13.98;;;12.02;;
3052;SDS011;1536;51.098;6.414;2023-03-01T04:53:29;17.15;;;12.10;;
3052;SDS011;1536;51.098;6.414;2023-03-01T04:55:57;15.70;;;12.38;;
3052;SDS011;1536;51.098;6.414;2023-03-01T04:58:25;12.80;;;11.50;;
3052;SDS011;1536;51.098;6.414;2023-03-01T05:00:53;16.30;;;11.80;;
3052;SDS011;1536;51.098;6.414;2023-03-01T05:03:22;11.75;;;10.65;;
3052;SDS011;1536;51.098;6.414;2023-03-01T05:05:49;13.30;;;12.00;;
3052;SDS011;1536;51.098;6.414;2023-03-01T05:08:17;13.20;;;12.10;;
3052;SDS011;1536;51.098;6.414;2023-03-01T05:10:46;13.95;;;12.52;;
3052;SDS011;1536;51.098;6.414;2023-03-01T05:13:14;14.75;;;13.18;;
3052;SDS011;1536;51.098;6.414;2023-03-01T05:15:46;14.15;;;12.40;;
3052;SDS011;1536;51.098;6.414;2023-03-01T05:18:14;14.43;;;12.05;;
3052;SDS011;1536;51.098;6.414;2023-03-01T05:20:42;14.07;;;11.82;;
3052;SDS011;1536;51.098;6.414;2023-03-01T05:23:09;14.10;;;12.35;;
3052;SDS011;1536;51.098;6.414;2023-03-01T05:25:36;16.50;;;13.40;;
3052;SDS011;1536;51.098;6.414;2023-03-01T05:28:05;14.32;;;12.18;;
3052;SDS011;1536;51.098;6.414;2023-03-01T05:30:33;13.45;;;11.65;;
3052;SDS011;1536;51.098;6.414;2023-03-01T05:33:00;13.13;;;11.73;;
3052;SDS011;1536;51.098;6.414;2023-03-01T05:35:27;15.60;;;13.32;;
3052;SDS011;1536;51.098;6.414;2023-03-01T05:37:58;15.98;;;13.20;;
3052;SDS011;1536;51.098;6.414;2023-03-01T05:40:25;14.45;;;12.43;;
3052;SDS011;1536;51.098;6.414;2023-03-01T05:42:52;12.68;;;11.38;;
3052;SDS011;1536;51.098;6.414;2023-03-01T05:45:21;15.85;;;11.40;;
3052;SDS011;1536;51.098;6.414;2023-03-01T05:47:48;14.75;;;12.65;;
3052;SDS011;1536;51.098;6.414;2023-03-01T05:50:17;15.98;;;12.57;;
3052;SDS011;1536;51.098;6.414;2023-03-01T05:52:45;14.48;;;12.55;;
3052;SDS011;1536;51.098;6.414;2023-03-01T05:55:14;15.88;;;12.75;;
3052;SDS011;1536;51.098;6.414;2023-03-01T05:57:42;14.98;;;13.48;;
3052;SDS011;1536;51.098;6.414;2023-03-01T06:00:09;13.50;;;12.00;;
3052;SDS011;1536;51.098;6.414;2023-03-01T06:02:38;13.23;;;11.75;;
3052;SDS011;1536;51.098;6.414;2023-03-01T06:05:05;13.23;;;11.82;;
3052;SDS011;1536;51.098;6.414;2023-03-01T06:07:33;17.20;;;11.20;;
3052;SDS011;1536;51.098;6.414;2023-03-01T06:10:01;15.18;;;11.55;;
3052;SDS011;1536;51.098;6.414;2023-03-01T06:12:31;14.30;;;12.90;;
3052;SDS011;1536;51.098;6.414;2023-03-01T06:14:58;16.50;;;12.52;;
3052;SDS011;1536;51.098;6.414;2023-03-01T06:17:25;13.13;;;11.70;;
3052;SDS011;1536;51.098;6.414;2023-03-01T06:19:51;18.38;;;12.65;;
3052;SDS011;1536;51.098;6.414;2023-03-01T06:22:18;22.50;;;13.52;;
3052;SDS011;1536;51.098;6.414;2023-03-01T06:24:45;14.05;;;12.55;;
3052;SDS011;1536;51.098;6.414;2023-03-01T06:27:11;13.55;;;12.07;;
3052;SDS011;1536;51.098;6.414;2023-03-01T06:29:39;14.60;;;12.40;;
3052;SDS011;1536;51.098;6.414;2023-03-01T06:32:06;14.65;;;12.93;;
3052;SDS011;1536;51.098;6.414;2023-03-01T06:34:33;14.50;;;13.10;;
3052;SDS011;1536;51.098;6.414;2023-03-01T06:37:00;13.52;;;12.15;;
3052;SDS011;1536;51.098;6.414;2023-03-01T06:39:30;13.18;;;11.88;;
3052;SDS011;1536;51.098;6.414;2023-03-01T06:41:56;14.18;;;12.10;;
3052;SDS011;1536;51.098;6.414;2023-03-01T06:44:23;13.30;;;11.98;;
3052;SDS011;1536;51.098;6.414;2023-03-01T06:46:51;14.38;;;12.98;;
3052;SDS011;1536;51.098;6.414;2023-03-01T06:49:18;14.45;;;13.05;;
3052;SDS011;1536;51.098;6.414;2023-03-01T06:51:45;16.92;;;14.05;;
3052;SDS011;1536;51.098;6.414;2023-03-01T06:54:12;13.95;;;12.57;;
3052;SDS011;1536;51.098;6.414;2023-03-01T06:56:39;18.98;;;13.43;;
3052;SDS011;1536;51.098;6.414;2023-03-01T06:59:05;14.65;;;13.15;;
3052;SDS011;1536;51.098;6.414;2023-03-01T07:01:32;16.20;;;13.35;;
3052;SDS011;1536;51.098;6.414;2023-03-01T07:04:00;14.18;;;12.70;;
3052;SDS011;1536;51.098;6.414;2023-03-01T07:06:27;16.20;;;11.65;;
3052;SDS011;1536;51.098;6.414;2023-03-01T07:08:53;15.90;;;12.98;;
3052;SDS011;1536;51.098;6.414;2023-03-01T07:11:20;14.88;;;13.35;;
3052;SDS011;1536;51.098;6.414;2023-03-01T07:13:47;14.30;;;12.80;;
3052;SDS011;1536;51.098;6.414;2023-03-01T07:16:14;14.00;;;11.70;;
3052;SDS011;1536;51.098;6.414;2023-03-01T07:18:40;16.10;;;14.48;;
3052;SDS011;1536;51.098;6.414;2023-03-01T07:21:09;14.57;;;13.02;;
3052;SDS011;1536;51.098;6.414;2023-03-01T07:23:38;17.98;;;14.20;;
3052;SDS011;1536;51.098;6.414;2023-03-01T07:26:05;15.93;;;14.20;;
3052;SDS011;1536;51.098;6.414;2023-03-01T07:28:32;13.82;;;12.52;;
3052;SDS011;1536;51.098;6.414;2023-03-01T07:31:01;16.13;;;13.98;;
3052;SDS011;1536;51.098;6.414;2023-03-01T07:33:28;16.92;;;15.13;;
3052;SDS011;1536;51.098;6.414;2023-03-01T07:35:55;16.25;;;14.13;;
3052;SDS011;1536;51.098;6.414;2023-03-01T07:38:25;15.55;;;13.60;;
3052;SDS011;1536;51.098;6.414;2023-03-01T07:40:52;15.48;;;14.05;;
3052;SDS011;1536;51.098;6.414;2023-03-01T07:43:19;15.68;;;14.07;;
3052;SDS011;1536;51.098;6.414;2023-03-01T07:45:46;14.13;;;12.65;;
3052;SDS011;1536;51.098;6.414;2023-03-01T07:48:13;19.05;;;14.40;;
3052;SDS011;1536;51.098;6.414;2023-03-01T07:50:39;15.40;;;13.18;;
3052;SDS011;1536;51.098;6.414;2023-03-01T07:53:06;18.00;;;13.95;;
3052;SDS011;1536;51.098;6.414;2023-03-01T07:55:34;15.63;;;13.43;;
3052;SDS011;1536;51.098;6.414;2023-03-01T07:58:01;15.43;;;13.05;;
3052;SDS011;1536;51.098;6.414;2023-03-01T08:00:28;13.55;;;12.15;;
3052;SDS011;1536;51.098;6.414;2023-03-01T08:02:54;16.15;;;14.40;;
3052;SDS011;1536;51.098;6.414;2023-03-01T08:05:24;15.98;;;13.10;;
3052;SDS011;1536;51.098;6.414;2023-03-01T08:07:51;16.73;;;14.45;;
3052;SDS011;1536;51.098;6.414;2023-03-01T08:10:18;15.98;;;14.23;;
3052;SDS011;1536;51.098;6.414;2023-03-01T08:12:46;15.45;;;13.82;;
3052;SDS011;1536;51.098;6.414;2023-03-01T08:15:13;16.77;;;13.88;;
3052;SDS011;1536;51.098;6.414;2023-03-01T08:17:40;18.23;;;15.05;;
3052;SDS011;1536;51.098;6.414;2023-03-01T08:20:07;21.38;;;15.48;;
3052;SDS011;1536;51.098;6.414;2023-03-01T08:22:37;17.40;;;14.90;;
3052;SDS011;1536;51.098;6.414;2023-03-01T08:25:05;24.52;;;14.93;;
3052;SDS011;1536;51.098;6.414;2023-03-01T08:27:32;17.58;;;13.60;;
3052;SDS011;1536;51.098;6.414;2023-03-01T08:30:00;18.17;;;14.15;;
3052;SDS011;1536;51.098;6.414;2023-03-01T08:32:26;17.48;;;13.70;;
3052;SDS011;1536;51.098;6.414;2023-03-01T08:34:53;14.82;;;13.32;;
3052;SDS011;1536;51.098;6.414;2023-03-01T08:37:20;19.65;;;15.25;;
3052;SDS011;1536;51.098;6.414;2023-03-01T08:39:46;17.85;;;14.82;;
3052;SDS011;1536;51.098;6.414;2023-03-01T08:42:13;14.75;;;13.25;;
3052;SDS011;1536;51.098;6.414;2023-03-01T08:44:40;15.27;;;13.68;;
3052;SDS011;1536;51.098;6.414;2023-03-01T08:47:08;17.02;;;14.63;;
3052;SDS011;1536;51.098;6.414;2023-03-01T08:49:34;18.52;;;14.77;;
3052;SDS011;1536;51.098;6.414;2023-03-01T08:52:01;19.65;;;14.55;;
3052;SDS011;1536;51.098;6.414;2023-03-01T08:54:28;17.50;;;15.00;;
3052;SDS011;1536;51.098;6.414;2023-03-01T08:56:55;16.15;;;14.43;;
3052;SDS011;1536;51.098;6.414;2023-03-01T08:59:24;15.68;;;13.95;;
3052;SDS011;1536;51.098;6.414;2023-03-01T09:01:51;17.40;;;15.63;;
3052;SDS011;1536;51.098;6.414;2023-03-01T09:04:19;22.13;;;14.32;;
3052;SDS011;1536;51.098;6.414;2023-03-01T09:06:46;16.33;;;14.65;;
3052;SDS011;1536;51.098;6.414;2023-03-01T09:09:13;18.92;;;14.48;;
3052;SDS011;1536;51.098;6.414;2023-03-01T09:11:41;17.42;;;15.73;;
3052;SDS011;1536;51.098;6.414;2023-03-01T09:14:11;16.98;;;15.27;;
3052;SDS011;1536;51.098;6.414;2023-03-01T09:16:38;20.27;;;14.45;;
3052;SDS011;1536;51.098;6.414;2023-03-01T09:19:05;16.27;;;14.45;;
3052;SDS011;1536;51.098;6.414;2023-03-01T09:21:33;17.25;;;15.02;;
3052;SDS011;1536;51.098;6.414;2023-03-01T09:23:59;16.17;;;14.50;;
3052;SDS011;1536;51.098;6.414;2023-03-01T09:26:26;19.33;;;15.45;;
3052;SDS011;1536;51.098;6.414;2023-03-01T09:28:54;19.58;;;15.60;;
3052;SDS011;1536;51.098;6.414;2023-03-01T09:31:22;15.75;;;14.02;;
3052;SDS011;1536;51.098;6.414;2023-03-01T09:33:50;15.20;;;13.60;;
3052;SDS011;1536;51.098;6.414;2023-03-01T09:36:20;15.88;;;14.15;;
3052;SDS011;1536;51.098;6.414;2023-03-01T09:38:49;24.02;;;14.82;;
3052;SDS011;1536;51.098;6.414;2023-03-01T09:41:25;18.15;;;14.20;;
3052;SDS011;1536;51.098;6.414;2023-03-01T09:44:11;19.13;;;15.10;;
3052;SDS011;1536;51.098;6.414;2023-03-01T09:46:47;16.08;;;14.38;;
3052;SDS011;1536;51.098;6.414;2023-03-01T09:49:14;17.17;;;15.27;;
3052;SDS011;1536;51.098;6.414;2023-03-01T09:51:43;16.23;;;14.60;;
3052;SDS011;1536;51.098;6.414;2023-03-01T09:54:21;19.58;;;14.93;;
3052;SDS011;1536;51.098;6.414;2023-03-01T09:56:52;20.38;;;14.63;;
3052;SDS011;1536;51.098;6.414;2023-03-01T09:59:31;18.48;;;14.88;;
3052;SDS011;1536;51.098;6.414;2023-03-01T10:02:14;23.17;;;15.50;;
3052;SDS011;1536;51.098;6.414;2023-03-01T10:04:50;17.13;;;15.27;;
3052;SDS011;1536;51.098;6.414;2023-03-01T10:07:21;17.77;;;15.95;;
3052;SDS011;1536;51.098;6.414;2023-03-01T10:09:56;17.40;;;15.68;;
3052;SDS011;1536;51.098;6.414;2023-03-01T10:12:26;16.40;;;14.60;;
3052;SDS011;1536;51.098;6.414;2023-03-01T10:14:57;19.17;;;15.60;;
3052;SDS011;1536;51.098;6.414;2023-03-01T10:17:30;18.88;;;15.40;;
3052;SDS011;1536;51.098;6.414;2023-03-01T10:20:10;17.35;;;14.43;;
3052;SDS011;1536;51.098;6.414;2023-03-01T10:22:42;21.17;;;16.05;;
3052;SDS011;1536;51.098;6.414;2023-03-01T10:25:15;18.58;;;14.45;;
3052;SDS011;1536;51.098;6.414;2023-03-01T10:27:47;17.52;;;15.00;;
3052;SDS011;1536;51.098;6.414;2023-03-01T10:30:19;16.80;;;13.93;;
3052;SDS011;1536;51.098;6.414;2023-03-01T10:32:48;15.55;;;13.73;;
3052;SDS011;1536;51.098;6.414;2023-03-01T10:35:19;15.00;;;13.40;;
3052;SDS011;1536;51.098;6.414;2023-03-01T10:37:57;16.00;;;14.18;;
3052;SDS011;1536;51.098;6.414;2023-03-01T10:40:31;22.05;;;14.85;;
3052;SDS011;1536;51.098;6.414;2023-03-01T10:42:58;16.52;;;13.13;;
3052;SDS011;1536;51.098;6.414;2023-03-01T10:45:32;19.17;;;13.50;;
3052;SDS011;1536;51.098;6.414;2023-03-01T10:48:05;17.88;;;12.98;;
3052;SDS011;1536;51.098;6.414;2023-03-01T10:50:37;16.45;;;12.80;;
3052;SDS011;1536;51.098;6.414;2023-03-01T10:53:16;18.38;;;13.40;;
3052;SDS011;1536;51.098;6.414;2023-03-01T10:55:56;13.80;;;12.40;;
3052;SDS011;1536;51.098;6.414;2023-03-01T10:58:25;15.60;;;12.90;;
3052;SDS011;1536;51.098;6.414;2023-03-01T11:04:02;15.88;;;12.07;;
3052;SDS011;1536;51.098;6.414;2023-03-01T11:06:37;21.40;;;14.00;;
3052;SDS011;1536;51.098;6.414;2023-03-01T11:09:13;15.85;;;11.55;;
3052;SDS011;1536;51.098;6.414;2023-03-01T11:11:42;19.13;;;13.80;;
3052;SDS011;1536;51.098;6.414;2023-03-01T11:14:12;16.80;;;12.85;;
3052;SDS011;1536;51.098;6.414;2023-03-01T11:16:43;16.30;;;12.40;;
3052;SDS011;1536;51.098;6.414;2023-03-01T11:19:14;13.90;;;12.60;;
3052;SDS011;1536;51.098;6.414;2023-03-01T11:21:44;17.60;;;12.95;;
3052;SDS011;1536;51.098;6.414;2023-03-01T11:24:16;14.55;;;12.70;;
3052;SDS011;1536;51.098;6.414;2023-03-01T11:26:47;17.02;;;13.27;;
3052;SDS011;1536;51.098;6.414;2023-03-01T11:29:21;19.58;;;12.52;;
3052;SDS011;1536;51.098;6.414;2023-03-01T11:31:54;14.75;;;13.35;;
3052;SDS011;1536;51.098;6.414;2023-03-01T11:34:28;15.68;;;12.95;;
3052;SDS011;1536;51.098;6.414;2023-03-01T11:37:11;13.98;;;12.57;;
3052;SDS011;1536;51.098;6.414;2023-03-01T11:39:51;16.52;;;13.07;;
3052;SDS011;1536;51.098;6.414;2023-03-01T11:42:27;13.07;;;11.77;;
3052;SDS011;1536;51.098;6.414;2023-03-01T11:45:05;14.00;;;12.60;;
3052;SDS011;1536;51.098;6.414;2023-03-01T11:47:39;12.73;;;11.45;;
3052;SDS011;1536;51.098;6.414;2023-03-01T11:50:23;14.32;;;12.57;;
3052;SDS011;1536;51.098;6.414;2023-03-01T11:52:58;18.10;;;12.45;;
3052;SDS011;1536;51.098;6.414;2023-03-01T11:55:36;12.68;;;11.48;;
3052;SDS011;1536;51.098;6.414;2023-03-01T11:58:22;13.40;;;12.15;;
3052;SDS011;1536;51.098;6.414;2023-03-01T12:01:02;13.98;;;11.88;;
3052;SDS011;1536;51.098;6.414;2023-03-01T12:03:40;14.88;;;11.38;;
3052;SDS011;1536;51.098;6.414;2023-03-01T12:06:27;21.30;;;12.60;;
3052;SDS011;1536;51.098;6.414;2023-03-01T12:09:15;16.40;;;12.20;;
3052;SDS011;1536;51.098;6.414;2023-03-01T12:11:52;21.77;;;11.75;;
3052;SDS011;1536;51.098;6.414;2023-03-01T12:17:31;14.85;;;12.13;;
3052;SDS011;1536;51.098;6.414;2023-03-01T12:20:20;15.10;;;11.48;;
3052;SDS011;1536;51.098;6.414;2023-03-01T12:22:57;18.83;;;12.20;;
3052;SDS011;1536;51.098;6.414;2023-03-01T12:25:53;14.30;;;11.00;;
3052;SDS011;1536;51.098;6.414;2023-03-01T12:31:15;13.02;;;11.80;;
3052;SDS011;1536;51.098;6.414;2023-03-01T12:34:00;15.48;;;11.20;;
3052;SDS011;1536;51.098;6.414;2023-03-01T12:36:43;12.98;;;11.40;;
3052;SDS011;1536;51.098;6.414;2023-03-01T12:39:24;14.68;;;12.00;;
3052;SDS011;1536;51.098;6.414;2023-03-01T12:42:04;14.88;;;12.13;;
3052;SDS011;1536;51.098;6.414;2023-03-01T12:44:42;16.85;;;13.00;;
3052;SDS011;1536;51.098;6.414;2023-03-01T12:47:30;15.40;;;11.90;;
3052;SDS011;1536;51.098;6.414;2023-03-01T12:50:11;14.60;;;12.80;;
3052;SDS011;1536;51.098;6.414;2023-03-01T12:52:41;11.85;;;10.65;;
3052;SDS011;1536;51.098;6.414;2023-03-01T12:55:18;18.73;;;11.35;;
3052;SDS011;1536;51.098;6.414;2023-03-01T12:57:53;12.07;;;10.82;;
3052;SDS011;1536;51.098;6.414;2023-03-01T13:00:30;12.60;;;11.30;;
3052;SDS011;1536;51.098;6.414;2023-03-01T13:03:04;12.77;;;11.55;;
3052;SDS011;1536;51.098;6.414;2023-03-01T13:05:41;13.18;;;11.77;;
3052;SDS011;1536;51.098;6.414;2023-03-01T13:08:19;15.32;;;10.35;;
3052;SDS011;1536;51.098;6.414;2023-03-01T13:10:54;12.60;;;11.50;;
3052;SDS011;1536;51.098;6.414;2023-03-01T13:13:25;13.35;;;10.15;;
3052;SDS011;1536;51.098;6.414;2023-03-01T13:15:53;12.45;;;11.13;;
3052;SDS011;1536;51.098;6.414;2023-03-01T13:18:28;11.80;;;9.88;;
3052;SDS011;1536;51.098;6.414;2023-03-01T13:20:58;13.07;;;10.02;;
3052;SDS011;1536;51.098;6.414;2023-03-01T13:23:28;10.00;;;9.00;;
3052;SDS011;1536;51.098;6.414;2023-03-01T13:26:00;13.48;;;10.25;;
3052;SDS011;1536;51.098;6.414;2023-03-01T13:28:36;12.57;;;10.90;;
3052;SDS011;1536;51.098;6.414;2023-03-01T13:31:55;10.23;;;9.32;;
3052;SDS011;1536;51.098;6.414;2023-03-01T13:34:41;13.15;;;9.40;;
3052;SDS011;1536;51.098;6.414;2023-03-01T13:37:20;16.98;;;9.32;;
3052;SDS011;1536;51.098;6.414;2023-03-01T13:39:55;14.60;;;9.35;;
3052;SDS011;1536;51.098;6.414;2023-03-01T13:42:31;8.88;;;7.82;;
3052;SDS011;1536;51.098;6.414;2023-03-01T13:45:04;11.63;;;8.48;;
3052;SDS011;1536;51.098;6.414;2023-03-01T13:47:42;10.68;;;8.48;;
3052;SDS011;1536;51.098;6.414;2023-03-01T13:50:16;10.98;;;8.35;;
3052;SDS011;1536;51.098;6.414;2023-03-01T13:52:48;9.93;;;8.88;;
3052;SDS011;1536;51.098;6.414;2023-03-01T13:55:19;11.50;;;8.75;;
3052;SDS011;1536;51.098;6.414;2023-03-01T13:57:50;9.18;;;8.18;;
3052;SDS011;1536;51.098;6.414;2023-03-01T14:00:26;11.65;;;8.07;;
3052;SDS011;1536;51.098;6.414;2023-03-01T14:03:09;10.93;;;7.82;;
3052;SDS011;1536;51.098;6.414;2023-03-01T14:05:38;8.70;;;7.90;;
3052;SDS011;1536;51.098;6.414;2023-03-01T14:08:17;9.75;;;8.60;;
3052;SDS011;1536;51.098;6.414;2023-03-01T14:10:49;8.77;;;7.97;;
3052;SDS011;1536;51.098;6.414;2023-03-01T14:13:26;10.73;;;8.77;;
3052;SDS011;1536;51.098;6.414;2023-03-01T14:16:06;14.45;;;9.02;;
3052;SDS011;1536;51.098;6.414;2023-03-01T14:18:49;11.95;;;9.20;;
3052;SDS011;1536;51.098;6.414;2023-03-01T14:21:21;9.55;;;8.55;;
3052;SDS011;1536;51.098;6.414;2023-03-01T14:23:50;9.88;;;8.88;;
3052;SDS011;1536;51.098;6.414;2023-03-01T14:26:19;8.85;;;7.90;;
3052;SDS011;1536;51.098;6.414;2023-03-01T14:28:47;11.68;;;8.90;;
3052;SDS011;1536;51.098;6.414;2023-03-01T14:31:31;13.65;;;8.68;;
3052;SDS011;1536;51.098;6.414;2023-03-01T14:34:03;9.02;;;8.13;;
3052;SDS011;1536;51.098;6.414;2023-03-01T14:36:31;9.88;;;7.90;;
3052;SDS011;1536;51.098;6.414;2023-03-01T14:39:00;13.00;;;8.30;;
3052;SDS011;1536;51.098;6.414;2023-03-01T14:41:31;10.63;;;8.45;;
3052;SDS011;1536;51.098;6.414;2023-03-01T14:44:00;10.73;;;8.88;;
3052;SDS011;1536;51.098;6.414;2023-03-01T14:46:31;11.43;;;8.60;;
3052;SDS011;1536;51.098;6.414;2023-03-01T14:49:03;9.90;;;9.00;;
3052;SDS011;1536;51.098;6.414;2023-03-01T14:51:35;8.73;;;7.93;;
3052;SDS011;1536;51.098;6.414;2023-03-01T14:54:04;12.70;;;9.40;;
3052;SDS011;1536;51.098;6.414;2023-03-01T14:56:44;10.80;;;9.10;;
3052;SDS011;1536;51.098;6.414;2023-03-01T14:59:12;10.93;;;8.77;;
3052;SDS011;1536;51.098;6.414;2023-03-01T15:01:39;10.90;;;7.95;;
3052;SDS011;1536;51.098;6.414;2023-03-01T15:04:10;9.02;;;8.13;;
3052;SDS011;1536;51.098;6.414;2023-03-01T15:06:39;10.13;;;8.82;;
3052;SDS011;1536;51.098;6.414;2023-03-01T15:09:06;13.43;;;8.65;;
3052;SDS011;1536;51.098;6.414;2023-03-01T15:11:38;11.48;;;9.18;;
3052;SDS011;1536;51.098;6.414;2023-03-01T15:16:54;9.85;;;8.88;;
3052;SDS011;1536;51.098;6.414;2023-03-01T15:19:23;9.40;;;8.48;;
3052;SDS011;1536;51.098;6.414;2023-03-01T15:21:52;13.13;;;8.60;;